sensor_id;sensor_type;location;lat;lon;timestamp;temperature;humidity
3380;DHT22;1703;51.964;7.642;2023-02-01T00:00:12;5.80;99.90
3380;DHT22;1703;51.964;7.642;2023-02-01T00:02:39;5.80;99.90
3380;DHT22;1703;51.964;7.642;2023-02-01T00:05:07;5.80;99.90
3380;DHT22;1703;51.964;7.642;2023-02-01T00:07:34;5.70;99.90
3380;DHT22;1703;51.964;7.642;2023-02-01T00:10:01;5.70;99.90
3380;DHT22;1703;51.964;7.642;2023-02-01T00:12:29;5.70;99.90
3380;DHT22;1703;51.964;7.642;2023-02-01T00:14:57;5.70;99.90
3380;DHT22;1703;51.964;7.642;2023-02-01T00:17:24;5.60;99.90
3380;DHT22;1703;51.964;7.642;2023-02-01T00:19:51;5.60;99.90
3380;DHT22;1703;51.964;7.642;2023-02-01T00:22:18;5.60;99.90
3380;DHT22;1703;51.964;7.642;2023-02-01T00:24:45;5.70;99.90
3380;DHT22;1703;51.964;7.642;2023-02-01T00:27:12;5.60;99.90
3380;DHT22;1703;51.964;7.642;2023-02-01T00:29:43;5.60;99.90
3380;DHT22;1703;51.964;7.642;2023-02-01T00:32:11;5.70;99.90
3380;DHT22;1703;51.964;7.642;2023-02-01T00:34:38;5.70;99.90
3380;DHT22;1703;51.964;7.642;2023-02-01T00:37:05;5.70;99.90
3380;DHT22;1703;51.964;7.642;2023-02-01T00:39:32;5.70;99.90
3380;DHT22;1703;51.964;7.642;2023-02-01T00:42:00;5.70;99.90
3380;DHT22;1703;51.964;7.642;2023-02-01T00:44:28;5.70;99.90
3380;DHT22;1703;51.964;7.642;2023-02-01T00:46:58;5.70;99.90
3380;DHT22;1703;51.964;7.642;2023-02-01T00:49:27;5.70;99.90
3380;DHT22;1703;51.964;7.642;2023-02-01T00:51:54;5.70;99.90
3380;DHT22;1703;51.964;7.642;2023-02-01T00:54:21;5.70;99.90
3380;DHT22;1703;51.964;7.642;2023-02-01T00:56:47;5.70;99.90
3380;DHT22;1703;51.964;7.642;2023-02-01T00:59:14;5.70;99.90
3380;DHT22;1703;51.964;7.642;2023-02-01T01:01:41;5.70;99.90
3380;DHT22;1703;51.964;7.642;2023-02-01T01:04:08;5.70;99.90
3380;DHT22;1703;51.964;7.642;2023-02-01T01:06:37;5.70;99.90
3380;DHT22;1703;51.964;7.642;2023-02-01T01:09:05;5.70;99.90
3380;DHT22;1703;51.964;7.642;2023-02-01T01:11:34;5.70;99.90
3380;DHT22;1703;51.964;7.642;2023-02-01T01:14:02;5.70;99.90
3380;DHT22;1703;51.964;7.642;2023-02-01T01:16:30;5.80;99.90
3380;DHT22;1703;51.964;7.642;2023-02-01T01:18:57;5.80;99.90
3380;DHT22;1703;51.964;7.642;2023-02-01T01:21:25;5.70;99.90
3380;DHT22;1703;51.964;7.642;2023-02-01T01:23:53;5.70;99.90
3380;DHT22;1703;51.964;7.642;2023-02-01T01:26:21;5.80;99.90
3380;DHT22;1703;51.964;7.642;2023-02-01T01:28:49;5.80;99.90
3380;DHT22;1703;51.964;7.642;2023-02-01T01:31:18;5.80;99.90
3380;DHT22;1703;51.964;7.642;2023-02-01T01:33:48;5.80;99.90
3380;DHT22;1703;51.964;7.642;2023-02-01T01:36:16;5.80;99.90
3380;DHT22;1703;51.964;7.642;2023-02-01T01:38:43;5.80;99.90
3380;DHT22;1703;51.964;7.642;2023-02-01T01:41:14;5.80;99.90
3380;DHT22;1703;51.964;7.642;2023-02-01T01:43:48;5.80;99.90
3380;DHT22;1703;51.964;7.642;2023-02-01T01:46:18;5.80;99.90
3380;DHT22;1703;51.964;7.642;2023-02-01T01:48:47;5.80;99.90
3380;DHT22;1703;51.964;7.642;2023-02-01T01:51:17;5.80;99.90
3380;DHT22;1703;51.964;7.642;2023-02-01T01:53:52;5.80;99.90
3380;DHT22;1703;51.964;7.642;2023-02-01T01:56:22;5.80;99.90
3380;DHT22;1703;51.964;7.642;2023-02-01T01:58:49;5.80;99.90
3380;DHT22;1703;51.964;7.642;2023-02-01T02:01:16;5.80;99.90
3380;DHT22;1703;51.964;7.642;2023-02-01T02:03:44;5.80;99.90
3380;DHT22;1703;51.964;7.642;2023-02-01T02:06:23;5.80;99.90
3380;DHT22;1703;51.964;7.642;2023-02-01T02:08:53;5.80;99.90
3380;DHT22;1703;51.964;7.642;2023-02-01T02:11:21;5.90;99.90
3380;DHT22;1703;51.964;7.642;2023-02-01T02:13:50;5.90;99.90
3380;DHT22;1703;51.964;7.642;2023-02-01T02:16:27;5.90;99.90
3380;DHT22;1703;51.964;7.642;2023-02-01T02:19:10;5.90;99.90
3380;DHT22;1703;51.964;7.642;2023-02-01T02:21:56;5.90;99.90
3380;DHT22;1703;51.964;7.642;2023-02-01T02:24:54;5.90;99.90
3380;DHT22;1703;51.964;7.642;2023-02-01T02:27:36;5.90;99.90
3380;DHT22;1703;51.964;7.642;2023-02-01T02:30:28;5.90;99.90
3380;DHT22;1703;51.964;7.642;2023-02-01T02:33:23;5.90;99.90
3380;DHT22;1703;51.964;7.642;2023-02-01T02:36:00;5.90;99.90
3380;DHT22;1703;51.964;7.642;2023-02-01T02:38:32;5.90;99.90
3380;DHT22;1703;51.964;7.642;2023-02-01T02:41:07;5.90;99.90
3380;DHT22;1703;51.964;7.642;2023-02-01T02:43:41;5.90;99.90
3380;DHT22;1703;51.964;7.642;2023-02-01T02:46:33;5.80;99.90
3380;DHT22;1703;51.964;7.642;2023-02-01T02:49:27;5.80;99.90
3380;DHT22;1703;51.964;7.642;2023-02-01T02:52:03;5.80;99.90
3380;DHT22;1703;51.964;7.642;2023-02-01T02:54:51;5.80;99.90
3380;DHT22;1703;51.964;7.642;2023-02-01T02:57:24;5.80;99.90
3380;DHT22;1703;51.964;7.642;2023-02-01T03:00:12;5.80;99.90
3380;DHT22;1703;51.964;7.642;2023-02-01T03:02:58;5.90;99.90
3380;DHT22;1703;51.964;7.642;2023-02-01T03:05:46;5.90;99.90
3380;DHT22;1703;51.964;7.642;2023-02-01T03:08:17;5.90;99.90
3380;DHT22;1703;51.964;7.642;2023-02-01T03:10:50;5.90;99.90
3380;DHT22;1703;51.964;7.642;2023-02-01T03:13:25;5.90;99.90
3380;DHT22;1703;51.964;7.642;2023-02-01T03:15:58;5.90;99.90
3380;DHT22;1703;51.964;7.642;2023-02-01T03:18:30;5.90;99.90
3380;DHT22;1703;51.964;7.642;2023-02-01T03:21:02;5.90;99.90
3380;DHT22;1703;51.964;7.642;2023-02-01T03:23:33;6.00;99.90
3380;DHT22;1703;51.964;7.642;2023-02-01T03:26:03;6.00;99.90
3380;DHT22;1703;51.964;7.642;2023-02-01T03:28:34;6.00;99.90
3380;DHT22;1703;51.964;7.642;2023-02-01T03:31:02;6.00;99.90
3380;DHT22;1703;51.964;7.642;2023-02-01T03:33:29;6.00;99.90
3380;DHT22;1703;51.964;7.642;2023-02-01T03:36:09;5.90;99.90
3380;DHT22;1703;51.964;7.642;2023-02-01T03:38:40;5.90;99.90
3380;DHT22;1703;51.964;7.642;2023-02-01T03:41:17;5.90;99.90
3380;DHT22;1703;51.964;7.642;2023-02-01T03:43:52;5.90;99.90
3380;DHT22;1703;51.964;7.642;2023-02-01T03:46:24;5.90;99.90
3380;DHT22;1703;51.964;7.642;2023-02-01T03:48:53;5.90;99.90
3380;DHT22;1703;51.964;7.642;2023-02-01T03:51:23;6.00;99.90
3380;DHT22;1703;51.964;7.642;2023-02-01T03:53:52;6.00;99.90
3380;DHT22;1703;51.964;7.642;2023-02-01T03:56:21;5.90;99.90
3380;DHT22;1703;51.964;7.642;2023-02-01T03:58:51;6.00;99.90
3380;DHT22;1703;51.964;7.642;2023-02-01T04:01:29;6.00;99.90
3380;DHT22;1703;51.964;7.642;2023-02-01T04:03:57;6.00;99.90
3380;DHT22;1703;51.964;7.642;2023-02-01T04:06:25;6.00;99.90
3380;DHT22;1703;51.964;7.642;2023-02-01T04:08:56;6.00;99.90
3380;DHT22;1703;51.964;7.642;2023-02-01T04:11:23;6.00;99.90
3380;DHT22;1703;51.964;7.642;2023-02-01T04:13:50;6.00;99.90
3380;DHT22;1703;51.964;7.642;2023-02-01T04:16:17;6.00;99.90
3380;DHT22;1703;51.964;7.642;2023-02-01T04:18:44;6.00;99.90
3380;DHT22;1703;51.964;7.642;2023-02-01T04:21:10;6.00;99.90
3380;DHT22;1703;51.964;7.642;2023-02-01T04:23:38;6.00;99.90
3380;DHT22;1703;51.964;7.642;2023-02-01T04:26:05;6.00;99.90
3380;DHT22;1703;51.964;7.642;2023-02-01T04:28:32;6.00;99.90
3380;DHT22;1703;51.964;7.642;2023-02-01T04:30:59;6.00;99.90
3380;DHT22;1703;51.964;7.642;2023-02-01T04:33:25;6.00;99.90
3380;DHT22;1703;51.964;7.642;2023-02-01T04:35:52;6.00;99.90
3380;DHT22;1703;51.964;7.642;2023-02-01T04:38:19;6.00;99.90
3380;DHT22;1703;51.964;7.642;2023-02-01T04:40:48;6.00;99.90
3380;DHT22;1703;51.964;7.642;2023-02-01T04:43:16;5.90;99.90
3380;DHT22;1703;51.964;7.642;2023-02-01T04:45:47;6.00;99.90
3380;DHT22;1703;51.964;7.642;2023-02-01T04:48:14;5.90;99.90
3380;DHT22;1703;51.964;7.642;2023-02-01T04:50:42;5.90;99.90
3380;DHT22;1703;51.964;7.642;2023-02-01T04:53:10;5.90;99.90
3380;DHT22;1703;51.964;7.642;2023-02-01T04:55:37;5.90;99.90
3380;DHT22;1703;51.964;7.642;2023-02-01T04:58:05;5.90;99.90
3380;DHT22;1703;51.964;7.642;2023-02-01T05:00:32;6.00;99.90
3380;DHT22;1703;51.964;7.642;2023-02-01T05:02:59;6.00;99.90
3380;DHT22;1703;51.964;7.642;2023-02-01T05:05:26;5.90;99.90
3380;DHT22;1703;51.964;7.642;2023-02-01T05:07:53;5.90;99.90
3380;DHT22;1703;51.964;7.642;2023-02-01T05:10:20;5.90;99.90
3380;DHT22;1703;51.964;7.642;2023-02-01T05:12:47;5.90;99.90
3380;DHT22;1703;51.964;7.642;2023-02-01T05:15:33;5.90;99.90
3380;DHT22;1703;51.964;7.642;2023-02-01T05:18:00;5.90;99.90
3380;DHT22;1703;51.964;7.642;2023-02-01T05:20:26;5.90;99.90
3380;DHT22;1703;51.964;7.642;2023-02-01T05:22:53;5.90;99.90
3380;DHT22;1703;51.964;7.642;2023-02-01T05:25:20;5.90;99.90
3380;DHT22;1703;51.964;7.642;2023-02-01T05:27:47;5.90;99.90
3380;DHT22;1703;51.964;7.642;2023-02-01T05:30:14;5.90;99.90
3380;DHT22;1703;51.964;7.642;2023-02-01T05:32:42;5.90;99.90
3380;DHT22;1703;51.964;7.642;2023-02-01T05:35:09;5.90;99.90
3380;DHT22;1703;51.964;7.642;2023-02-01T05:37:36;5.90;99.90
3380;DHT22;1703;51.964;7.642;2023-02-01T05:40:03;5.90;99.90
3380;DHT22;1703;51.964;7.642;2023-02-01T05:42:30;5.90;99.90
3380;DHT22;1703;51.964;7.642;2023-02-01T05:44:57;5.90;99.90
3380;DHT22;1703;51.964;7.642;2023-02-01T05:47:24;5.90;99.90
3380;DHT22;1703;51.964;7.642;2023-02-01T05:49:52;5.90;99.90
3380;DHT22;1703;51.964;7.642;2023-02-01T05:52:19;5.90;99.90
3380;DHT22;1703;51.964;7.642;2023-02-01T05:54:46;5.90;99.90
3380;DHT22;1703;51.964;7.642;2023-02-01T05:57:13;5.90;99.90
3380;DHT22;1703;51.964;7.642;2023-02-01T05:59:40;5.90;99.90
3380;DHT22;1703;51.964;7.642;2023-02-01T06:02:10;5.90;99.90
3380;DHT22;1703;51.964;7.642;2023-02-01T06:04:37;5.90;99.90
3380;DHT22;1703;51.964;7.642;2023-02-01T06:07:06;5.90;99.90
3380;DHT22;1703;51.964;7.642;2023-02-01T06:09:34;5.90;99.90
3380;DHT22;1703;51.964;7.642;2023-02-01T06:12:01;5.90;99.90
3380;DHT22;1703;51.964;7.642;2023-02-01T06:14:29;6.00;99.90
3380;DHT22;1703;51.964;7.642;2023-02-01T06:16:56;5.90;99.90
3380;DHT22;1703;51.964;7.642;2023-02-01T06:19:23;5.90;99.90
3380;DHT22;1703;51.964;7.642;2023-02-01T06:21:50;5.90;99.90
3380;DHT22;1703;51.964;7.642;2023-02-01T06:24:18;5.90;99.90
3380;DHT22;1703;51.964;7.642;2023-02-01T06:26:45;5.90;99.90
3380;DHT22;1703;51.964;7.642;2023-02-01T06:29:12;5.90;99.90
3380;DHT22;1703;51.964;7.642;2023-02-01T06:31:39;5.90;99.90
3380;DHT22;1703;51.964;7.642;2023-02-01T06:34:08;5.90;99.90
3380;DHT22;1703;51.964;7.642;2023-02-01T06:36:35;5.90;99.90
3380;DHT22;1703;51.964;7.642;2023-02-01T06:39:01;6.00;99.90
3380;DHT22;1703;51.964;7.642;2023-02-01T06:41:30;6.00;99.90
3380;DHT22;1703;51.964;7.642;2023-02-01T06:44:00;6.00;99.90
3380;DHT22;1703;51.964;7.642;2023-02-01T06:46:27;6.00;99.90
3380;DHT22;1703;51.964;7.642;2023-02-01T06:48:53;6.00;99.90
3380;DHT22;1703;51.964;7.642;2023-02-01T06:51:22;6.00;99.90
3380;DHT22;1703;51.964;7.642;2023-02-01T06:53:50;6.00;99.90
3380;DHT22;1703;51.964;7.642;2023-02-01T06:56:17;6.20;99.90
3380;DHT22;1703;51.964;7.642;2023-02-01T06:58:46;6.20;99.90
3380;DHT22;1703;51.964;7.642;2023-02-01T07:01:13;6.20;99.90
3380;DHT22;1703;51.964;7.642;2023-02-01T07:03:40;6.10;99.90
3380;DHT22;1703;51.964;7.642;2023-02-01T07:06:08;6.10;99.90
3380;DHT22;1703;51.964;7.642;2023-02-01T07:08:37;6.10;99.90
3380;DHT22;1703;51.964;7.642;2023-02-01T07:11:05;6.10;99.90
3380;DHT22;1703;51.964;7.642;2023-02-01T07:13:32;6.10;99.90
3380;DHT22;1703;51.964;7.642;2023-02-01T07:16:01;6.20;99.90
3380;DHT22;1703;51.964;7.642;2023-02-01T07:18:28;6.20;99.90
3380;DHT22;1703;51.964;7.642;2023-02-01T07:20:55;6.20;99.90
3380;DHT22;1703;51.964;7.642;2023-02-01T07:23:23;6.20;99.90
3380;DHT22;1703;51.964;7.642;2023-02-01T07:25:53;6.20;99.90
3380;DHT22;1703;51.964;7.642;2023-02-01T07:28:20;6.20;99.90
3380;DHT22;1703;51.964;7.642;2023-02-01T07:30:47;6.20;99.90
3380;DHT22;1703;51.964;7.642;2023-02-01T07:33:18;6.30;99.90
3380;DHT22;1703;51.964;7.642;2023-02-01T07:35:46;6.30;99.90
3380;DHT22;1703;51.964;7.642;2023-02-01T07:38:13;6.30;99.90
3380;DHT22;1703;51.964;7.642;2023-02-01T07:40:40;6.30;99.90
3380;DHT22;1703;51.964;7.642;2023-02-01T07:43:07;6.30;99.90
3380;DHT22;1703;51.964;7.642;2023-02-01T07:45:34;6.30;99.90
3380;DHT22;1703;51.964;7.642;2023-02-01T07:48:02;6.40;99.90
3380;DHT22;1703;51.964;7.642;2023-02-01T07:50:31;6.40;99.90
3380;DHT22;1703;51.964;7.642;2023-02-01T07:52:58;6.40;99.90
3380;DHT22;1703;51.964;7.642;2023-02-01T07:55:25;6.40;99.90
3380;DHT22;1703;51.964;7.642;2023-02-01T07:57:52;6.40;99.90
3380;DHT22;1703;51.964;7.642;2023-02-01T08:00:19;6.40;99.90
3380;DHT22;1703;51.964;7.642;2023-02-01T08:03:04;6.40;99.90
3380;DHT22;1703;51.964;7.642;2023-02-01T08:05:33;6.50;99.90
3380;DHT22;1703;51.964;7.642;2023-02-01T08:07:59;6.50;99.90
3380;DHT22;1703;51.964;7.642;2023-02-01T08:10:26;6.50;99.90
3380;DHT22;1703;51.964;7.642;2023-02-01T08:12:57;6.50;99.90
3380;DHT22;1703;51.964;7.642;2023-02-01T08:15:25;6.60;99.90
3380;DHT22;1703;51.964;7.642;2023-02-01T08:17:53;6.60;99.90
3380;DHT22;1703;51.964;7.642;2023-02-01T08:20:20;6.60;99.90
3380;DHT22;1703;51.964;7.642;2023-02-01T08:22:49;6.60;99.90
3380;DHT22;1703;51.964;7.642;2023-02-01T08:25:16;6.70;99.90
3380;DHT22;1703;51.964;7.642;2023-02-01T08:27:44;6.70;99.90
3380;DHT22;1703;51.964;7.642;2023-02-01T08:30:12;6.70;99.90
3380;DHT22;1703;51.964;7.642;2023-02-01T08:32:39;6.70;99.90
3380;DHT22;1703;51.964;7.642;2023-02-01T08:35:06;6.70;99.90
3380;DHT22;1703;51.964;7.642;2023-02-01T08:37:33;6.80;99.90
3380;DHT22;1703;51.964;7.642;2023-02-01T08:40:01;6.80;99.90
3380;DHT22;1703;51.964;7.642;2023-02-01T08:42:28;6.80;99.90
3380;DHT22;1703;51.964;7.642;2023-02-01T08:45:13;6.80;99.90
3380;DHT22;1703;51.964;7.642;2023-02-01T08:47:40;6.80;99.90
3380;DHT22;1703;51.964;7.642;2023-02-01T08:50:08;6.80;99.90
3380;DHT22;1703;51.964;7.642;2023-02-01T08:52:35;6.80;99.90
3380;DHT22;1703;51.964;7.642;2023-02-01T08:55:04;6.80;99.90
3380;DHT22;1703;51.964;7.642;2023-02-01T08:57:31;6.80;99.90
3380;DHT22;1703;51.964;7.642;2023-02-01T08:59:58;6.90;99.90
3380;DHT22;1703;51.964;7.642;2023-02-01T09:02:25;6.90;99.90
3380;DHT22;1703;51.964;7.642;2023-02-01T09:04:52;6.90;99.90
3380;DHT22;1703;51.964;7.642;2023-02-01T09:07:19;6.90;99.90
3380;DHT22;1703;51.964;7.642;2023-02-01T09:09:46;6.90;99.90
3380;DHT22;1703;51.964;7.642;2023-02-01T09:12:14;6.90;99.90
3380;DHT22;1703;51.964;7.642;2023-02-01T09:14:41;6.90;99.90
3380;DHT22;1703;51.964;7.642;2023-02-01T09:17:08;7.00;99.90
3380;DHT22;1703;51.964;7.642;2023-02-01T09:19:35;7.00;99.90
3380;DHT22;1703;51.964;7.642;2023-02-01T09:22:02;7.00;99.90
3380;DHT22;1703;51.964;7.642;2023-02-01T09:24:31;7.00;99.90
3380;DHT22;1703;51.964;7.642;2023-02-01T09:26:58;7.00;99.90
3380;DHT22;1703;51.964;7.642;2023-02-01T09:29:27;7.00;99.90
3380;DHT22;1703;51.964;7.642;2023-02-01T09:31:54;7.00;99.90
3380;DHT22;1703;51.964;7.642;2023-02-01T09:34:21;7.10;99.90
3380;DHT22;1703;51.964;7.642;2023-02-01T09:36:49;7.10;99.90
3380;DHT22;1703;51.964;7.642;2023-02-01T09:39:17;7.10;99.90
3380;DHT22;1703;51.964;7.642;2023-02-01T09:41:51;7.10;99.90
3380;DHT22;1703;51.964;7.642;2023-02-01T09:44:59;7.10;99.90
3380;DHT22;1703;51.964;7.642;2023-02-01T09:47:42;7.20;99.90
3380;DHT22;1703;51.964;7.642;2023-02-01T09:50:12;7.20;99.90
3380;DHT22;1703;51.964;7.642;2023-02-01T09:52:46;7.20;99.90
3380;DHT22;1703;51.964;7.642;2023-02-01T09:55:18;7.30;99.90
3380;DHT22;1703;51.964;7.642;2023-02-01T09:57:51;7.30;99.90
3380;DHT22;1703;51.964;7.642;2023-02-01T10:00:24;7.40;99.90
3380;DHT22;1703;51.964;7.642;2023-02-01T10:02:53;7.40;99.90
3380;DHT22;1703;51.964;7.642;2023-02-01T10:05:31;7.50;99.90
3380;DHT22;1703;51.964;7.642;2023-02-01T10:08:11;7.60;99.90
3380;DHT22;1703;51.964;7.642;2023-02-01T10:10:45;7.50;99.90
3380;DHT22;1703;51.964;7.642;2023-02-01T10:13:31;7.50;99.90
3380;DHT22;1703;51.964;7.642;2023-02-01T10:16:14;7.50;99.90
3380;DHT22;1703;51.964;7.642;2023-02-01T10:19:04;7.50;99.90
3380;DHT22;1703;51.964;7.642;2023-02-01T10:21:45;7.50;99.90
3380;DHT22;1703;51.964;7.642;2023-02-01T10:24:24;7.50;99.90
3380;DHT22;1703;51.964;7.642;2023-02-01T10:26:59;7.50;99.90
3380;DHT22;1703;51.964;7.642;2023-02-01T10:29:34;7.40;99.90
3380;DHT22;1703;51.964;7.642;2023-02-01T10:32:11;7.50;99.90
3380;DHT22;1703;51.964;7.642;2023-02-01T10:34:38;7.50;99.90
3380;DHT22;1703;51.964;7.642;2023-02-01T10:37:15;7.50;99.90
3380;DHT22;1703;51.964;7.642;2023-02-01T10:39:45;7.50;99.90
3380;DHT22;1703;51.964;7.642;2023-02-01T10:42:13;7.50;99.90
3380;DHT22;1703;51.964;7.642;2023-02-01T10:44:42;7.60;99.90
3380;DHT22;1703;51.964;7.642;2023-02-01T10:47:12;7.60;99.90
3380;DHT22;1703;51.964;7.642;2023-02-01T10:49:43;7.60;99.90
3380;DHT22;1703;51.964;7.642;2023-02-01T10:52:13;7.60;99.90
3380;DHT22;1703;51.964;7.642;2023-02-01T10:54:42;7.60;99.90
3380;DHT22;1703;51.964;7.642;2023-02-01T10:57:11;7.60;99.90
3380;DHT22;1703;51.964;7.642;2023-02-01T10:59:45;7.60;99.90
3380;DHT22;1703;51.964;7.642;2023-02-01T11:02:20;7.60;99.90
3380;DHT22;1703;51.964;7.642;2023-02-01T11:04:58;7.60;99.90
3380;DHT22;1703;51.964;7.642;2023-02-01T11:07:27;7.60;99.90
3380;DHT22;1703;51.964;7.642;2023-02-01T11:09:55;7.60;99.90
3380;DHT22;1703;51.964;7.642;2023-02-01T11:12:32;7.60;99.90
3380;DHT22;1703;51.964;7.642;2023-02-01T11:15:03;7.60;99.90
3380;DHT22;1703;51.964;7.642;2023-02-01T11:17:43;7.60;99.90
3380;DHT22;1703;51.964;7.642;2023-02-01T11:20:13;7.50;99.90
3380;DHT22;1703;51.964;7.642;2023-02-01T11:22:46;7.50;99.90
3380;DHT22;1703;51.964;7.642;2023-02-01T11:25:16;7.50;99.90
3380;DHT22;1703;51.964;7.642;2023-02-01T11:27:44;7.50;99.90
3380;DHT22;1703;51.964;7.642;2023-02-01T11:30:15;7.40;99.90
3380;DHT22;1703;51.964;7.642;2023-02-01T11:32:45;7.30;99.90
3380;DHT22;1703;51.964;7.642;2023-02-01T11:35:17;7.30;99.90
3380;DHT22;1703;51.964;7.642;2023-02-01T11:37:50;7.20;99.90
3380;DHT22;1703;51.964;7.642;2023-02-01T11:40:28;7.10;99.90
3380;DHT22;1703;51.964;7.642;2023-02-01T11:42:57;7.10;99.90
3380;DHT22;1703;51.964;7.642;2023-02-01T11:45:28;7.00;99.90
3380;DHT22;1703;51.964;7.642;2023-02-01T11:48:00;7.00;99.90
3380;DHT22;1703;51.964;7.642;2023-02-01T11:50:35;6.90;99.90
3380;DHT22;1703;51.964;7.642;2023-02-01T11:53:24;6.80;99.90
3380;DHT22;1703;51.964;7.642;2023-02-01T11:56:08;6.80;99.90
3380;DHT22;1703;51.964;7.642;2023-02-01T11:59:04;6.70;99.90
3380;DHT22;1703;51.964;7.642;2023-02-01T12:01:54;6.70;99.90
3380;DHT22;1703;51.964;7.642;2023-02-01T12:04:56;6.60;99.90
3380;DHT22;1703;51.964;7.642;2023-02-01T12:07:32;6.60;99.90
3380;DHT22;1703;51.964;7.642;2023-02-01T12:10:18;6.60;99.90
3380;DHT22;1703;51.964;7.642;2023-02-01T12:12:52;6.50;99.90
3380;DHT22;1703;51.964;7.642;2023-02-01T12:15:31;6.50;99.90
3380;DHT22;1703;51.964;7.642;2023-02-01T12:18:33;6.40;99.90
3380;DHT22;1703;51.964;7.642;2023-02-01T12:21:10;6.40;99.90
3380;DHT22;1703;51.964;7.642;2023-02-01T12:24:05;6.40;99.90
3380;DHT22;1703;51.964;7.642;2023-02-01T12:26:54;6.40;99.90
3380;DHT22;1703;51.964;7.642;2023-02-01T12:29:48;6.40;99.90
3380;DHT22;1703;51.964;7.642;2023-02-01T12:32:33;6.40;99.90
3380;DHT22;1703;51.964;7.642;2023-02-01T12:35:38;6.40;99.90
3380;DHT22;1703;51.964;7.642;2023-02-01T12:38:25;6.40;99.90
3380;DHT22;1703;51.964;7.642;2023-02-01T12:41:11;6.40;99.90
3380;DHT22;1703;51.964;7.642;2023-02-01T12:43:45;6.50;99.90
3380;DHT22;1703;51.964;7.642;2023-02-01T12:46:16;6.50;99.90
3380;DHT22;1703;51.964;7.642;2023-02-01T12:48:54;6.50;99.90
3380;DHT22;1703;51.964;7.642;2023-02-01T12:51:26;6.50;99.90
3380;DHT22;1703;51.964;7.642;2023-02-01T12:53:57;6.50;99.90
3380;DHT22;1703;51.964;7.642;2023-02-01T12:56:30;6.50;99.90
3380;DHT22;1703;51.964;7.642;2023-02-01T12:58:59;6.60;99.90
3380;DHT22;1703;51.964;7.642;2023-02-01T13:01:33;6.50;99.90
3380;DHT22;1703;51.964;7.642;2023-02-01T13:04:08;6.50;99.90
3380;DHT22;1703;51.964;7.642;2023-02-01T13:06:39;6.50;99.90
3380;DHT22;1703;51.964;7.642;2023-02-01T13:09:18;6.50;99.90
3380;DHT22;1703;51.964;7.642;2023-02-01T13:11:48;6.50;99.90
3380;DHT22;1703;51.964;7.642;2023-02-01T13:14:25;6.50;99.90
3380;DHT22;1703;51.964;7.642;2023-02-01T13:16:59;6.60;99.90
3380;DHT22;1703;51.964;7.642;2023-02-01T13:19:29;6.60;99.90
3380;DHT22;1703;51.964;7.642;2023-02-01T13:21:59;6.70;99.90
3380;DHT22;1703;51.964;7.642;2023-02-01T13:24:32;6.80;99.90
3380;DHT22;1703;51.964;7.642;2023-02-01T13:27:01;6.80;99.90
3380;DHT22;1703;51.964;7.642;2023-02-01T13:29:28;6.80;99.90
3380;DHT22;1703;51.964;7.642;2023-02-01T13:32:12;6.90;99.90
3380;DHT22;1703;51.964;7.642;2023-02-01T13:38:07;6.90;99.90
3380;DHT22;1703;51.964;7.642;2023-02-01T13:40:42;7.00;99.90
3380;DHT22;1703;51.964;7.642;2023-02-01T13:43:13;7.00;99.90
3380;DHT22;1703;51.964;7.642;2023-02-01T13:48:19;7.10;99.90
3380;DHT22;1703;51.964;7.642;2023-02-01T13:50:50;7.20;99.90
3380;DHT22;1703;51.964;7.642;2023-02-01T13:53:29;7.20;99.90
3380;DHT22;1703;51.964;7.642;2023-02-01T13:55:59;7.30;99.90
3380;DHT22;1703;51.964;7.642;2023-02-01T13:58:32;7.30;99.90
3380;DHT22;1703;51.964;7.642;2023-02-01T14:01:32;7.40;99.90
3380;DHT22;1703;51.964;7.642;2023-02-01T14:04:01;7.50;99.90
3380;DHT22;1703;51.964;7.642;2023-02-01T14:06:53;7.60;99.90
3380;DHT22;1703;51.964;7.642;2023-02-01T14:09:32;7.70;99.90
3380;DHT22;1703;51.964;7.642;2023-02-01T14:15:21;7.70;99.90
3380;DHT22;1703;51.964;7.642;2023-02-01T14:17:49;7.80;99.90
3380;DHT22;1703;51.964;7.642;2023-02-01T14:20:39;7.80;99.90
3380;DHT22;1703;51.964;7.642;2023-02-01T14:23:15;7.70;99.90
3380;DHT22;1703;51.964;7.642;2023-02-01T14:25:44;7.70;99.90
3380;DHT22;1703;51.964;7.642;2023-02-01T14:28:19;7.70;99.90
3380;DHT22;1703;51.964;7.642;2023-02-01T14:30:49;7.60;99.90
3380;DHT22;1703;51.964;7.642;2023-02-01T14:33:21;7.70;99.90
3380;DHT22;1703;51.964;7.642;2023-02-01T14:36:04;7.70;99.90
3380;DHT22;1703;51.964;7.642;2023-02-01T14:38:33;7.60;99.90
3380;DHT22;1703;51.964;7.642;2023-02-01T14:41:26;7.50;99.90
3380;DHT22;1703;51.964;7.642;2023-02-01T14:44:28;7.40;99.90
3380;DHT22;1703;51.964;7.642;2023-02-01T14:47:28;7.40;99.90
3380;DHT22;1703;51.964;7.642;2023-02-01T14:50:31;7.40;99.90
3380;DHT22;1703;51.964;7.642;2023-02-01T14:53:14;7.40;99.90
3380;DHT22;1703;51.964;7.642;2023-02-01T14:55:44;7.50;99.90
3380;DHT22;1703;51.964;7.642;2023-02-01T14:58:23;7.50;99.90
3380;DHT22;1703;51.964;7.642;2023-02-01T15:00:56;7.40;99.90
3380;DHT22;1703;51.964;7.642;2023-02-01T15:03:44;7.40;99.90
3380;DHT22;1703;51.964;7.642;2023-02-01T15:06:26;7.40;99.90
3380;DHT22;1703;51.964;7.642;2023-02-01T15:08:57;7.40;99.90
3380;DHT22;1703;51.964;7.642;2023-02-01T15:11:25;7.40;99.90
3380;DHT22;1703;51.964;7.642;2023-02-01T15:13:53;7.40;99.90
3380;DHT22;1703;51.964;7.642;2023-02-01T15:16:22;7.40;99.90
3380;DHT22;1703;51.964;7.642;2023-02-01T15:19:04;7.40;99.90
3380;DHT22;1703;51.964;7.642;2023-02-01T15:21:42;7.40;99.90
3380;DHT22;1703;51.964;7.642;2023-02-01T15:24:11;7.40;99.90
3380;DHT22;1703;51.964;7.642;2023-02-01T15:26:38;7.40;99.90
3380;DHT22;1703;51.964;7.642;2023-02-01T15:29:05;7.50;99.90
3380;DHT22;1703;51.964;7.642;2023-02-01T15:31:34;7.50;99.90
3380;DHT22;1703;51.964;7.642;2023-02-01T15:34:02;7.50;99.90
3380;DHT22;1703;51.964;7.642;2023-02-01T15:36:29;7.50;99.90
3380;DHT22;1703;51.964;7.642;2023-02-01T15:39:18;7.60;99.90
3380;DHT22;1703;51.964;7.642;2023-02-01T15:41:51;7.60;99.90
3380;DHT22;1703;51.964;7.642;2023-02-01T15:44:39;7.60;99.90
3380;DHT22;1703;51.964;7.642;2023-02-01T15:47:15;7.70;99.90
3380;DHT22;1703;51.964;7.642;2023-02-01T15:49:46;7.80;99.90
3380;DHT22;1703;51.964;7.642;2023-02-01T15:52:23;7.80;99.90
3380;DHT22;1703;51.964;7.642;2023-02-01T15:54:53;7.80;99.90
3380;DHT22;1703;51.964;7.642;2023-02-01T15:57:23;7.80;99.90
3380;DHT22;1703;51.964;7.642;2023-02-01T15:59:57;7.80;99.90
3380;DHT22;1703;51.964;7.642;2023-02-01T16:02:26;7.80;99.90
3380;DHT22;1703;51.964;7.642;2023-02-01T16:04:55;7.80;99.90
3380;DHT22;1703;51.964;7.642;2023-02-01T16:07:26;7.80;99.90
3380;DHT22;1703;51.964;7.642;2023-02-01T16:09:55;7.70;99.90
3380;DHT22;1703;51.964;7.642;2023-02-01T16:12:29;7.80;99.90
3380;DHT22;1703;51.964;7.642;2023-02-01T16:14:56;7.70;99.90
3380;DHT22;1703;51.964;7.642;2023-02-01T16:17:23;7.80;99.90
3380;DHT22;1703;51.964;7.642;2023-02-01T16:19:50;7.70;99.90
3380;DHT22;1703;51.964;7.642;2023-02-01T16:22:18;7.70;99.90
3380;DHT22;1703;51.964;7.642;2023-02-01T16:24:45;7.60;99.90
3380;DHT22;1703;51.964;7.642;2023-02-01T16:27:12;7.70;99.90
3380;DHT22;1703;51.964;7.642;2023-02-01T16:29:39;7.60;99.90
3380;DHT22;1703;51.964;7.642;2023-02-01T16:32:08;7.60;99.90
3380;DHT22;1703;51.964;7.642;2023-02-01T16:34:38;7.60;99.90
3380;DHT22;1703;51.964;7.642;2023-02-01T16:37:11;7.60;99.90
3380;DHT22;1703;51.964;7.642;2023-02-01T16:39:40;7.70;99.90
3380;DHT22;1703;51.964;7.642;2023-02-01T16:42:14;7.70;99.90
3380;DHT22;1703;51.964;7.642;2023-02-01T16:44:41;7.70;99.90
3380;DHT22;1703;51.964;7.642;2023-02-01T16:47:12;7.70;99.90
3380;DHT22;1703;51.964;7.642;2023-02-01T16:49:41;7.70;99.90
3380;DHT22;1703;51.964;7.642;2023-02-01T16:52:14;7.50;99.90
3380;DHT22;1703;51.964;7.642;2023-02-01T16:54:42;7.50;99.90
3380;DHT22;1703;51.964;7.642;2023-02-01T16:57:12;7.50;99.90